Nearby METAR Reports

 

KMHT - Manchester, New Hampshire, USA
Distance from station: W 16mi, 26km
Updated: Sat, 17-Feb-2018 7:53pm EST
Overcast
Overcast
 Wind from SSE
Wind: SSE 10 mph , 17 km/h
Temperature: 32°F , 0°C
Wind Chill: 24°F , -4°C
Dew Point: 19°F , -7°C
Humidity: 60%
Barometer: 30.19 inHg , 1022.4 hPa
Clouds: Overcast
Visibility: 10 miles , 16 km
Cloud details: Overcast 4300 ft
2018/02/18 00:53 KMHT 180053Z 15009KT 10SM OVC043 00/M07 A3019 RMK AO2 SLP242 T00001072
KPSM - Portsmouth/Pease, New Hampshire, USA
Distance from station: ENE 17mi, 27km
Updated: Sat, 17-Feb-2018 7:56pm EST
Overcast
Overcast
 Wind from SSE
Wind: SSE 12 mph , 19 km/h
Temperature: 34°F , 1°C
Wind Chill: 25°F , -4°C
Dew Point: 23°F , -5°C
Humidity: 65%
Barometer: 30.21 inHg , 1023 hPa
Clouds: Overcast
Visibility: 10 miles , 16 km
Cloud details: Few Clouds 3600 ft
Mostly cloudy 11000 ft
Overcast 25000 ft
2018/02/18 00:56 KPSM 180056Z 16010KT 10SM FEW036 BKN110 OVC250 01/M05 A3021 RMK AO2A SLP234 T00081048
 
KASH - Nashua/Boire Fld, New Hampshire, USA
Distance from station: WSW 24mi, 38km
Updated: Sat, 17-Feb-2018 7:56pm EST
Overcast
Overcast
 Wind from SSE
Wind: SSE 8 mph , 13 km/h
Temperature: 32°F , 0°C
Wind Chill: 25°F , -4°C
Dew Point: 18°F , -8°C
Humidity: 55%
Barometer: 30.22 inHg , 1023.4 hPa
Clouds: Overcast
Visibility: 10 miles , 16 km
Cloud details: Overcast 3800 ft
2018/02/18 00:56 KASH 180056Z 15007KT 10SM OVC038 00/M08 A3022 RMK AO2 SLP244 T00001078
KDAW - Rochester, New Hampshire, USA
Distance from station: NNE 24mi, 39km
Updated: Sat, 17-Feb-2018 7:51pm EST
Mostly cloudy
Mostly cloudy
 Wind from SSE
Wind: SSE 6 mph , 9 km/h
Temperature: 30°F , -1°C
Wind Chill: 24°F , -4°C
Dew Point: 21°F , -6°C
Humidity: 69%
Barometer: 30.20 inHg , 1022.7 hPa
Clouds: Mostly cloudy
Visibility: 10 miles , 16 km
Cloud details: Mostly cloudy 11000 ft
2018/02/18 00:51 KDAW 180051Z AUTO 16005KT 10SM BKN110 M01/M06 A3020 RMK AO2 PRESFR SLP228 T10061056